Terminal Aerodrome Forecast
Issued by NWS

Home | Current Version | Previous Version | Graphics & Text | Print | Product List | Glossary On
Versions: 1 2 3 4 5 6 7 8 9 10 11 12 13 14 15 16 17 18
000
FTUS43 KGRB 210520
TAFATW
TAF
KATW 210520Z 2106/2206 08005KT 1/2SM -DZ FG OVC003
      TEMPO 2106/2110 1/4SM FG OVC002
     FM211000 08004KT 1/4SM -DZ FG OVC002
     FM211500 09006KT 3/4SM -RA BR OVC003
     FM212200 13005KT 3/4SM -DZ BR OVC003
     FM220100 21004KT 1SM -DZ BR OVC004=

USA.gov is the U.S. government's official web portal to all federal, state and local government web resources and services.